Time;durP1;ratioP1;P1;durP2;ratioP2;P2;SDS_P1;SDS_P2;PMS_P1;PMS_P2;Temp;Humidity;BMP_temperature;BMP_pressure;BME280_temperature;BME280_humidity;BME280_pressure;Samples;Min_cycle;Max_cycle;Signal;HPM_P1;HPM_P2
2021/11/10 00:02:13;;;;;;;74.63;46.70;;;154.10;2252.80;;;;;;5107190;28;20460;-74
2021/11/10 00:04:39;;;;;;;77.40;46.95;;;154.10;2252.80;;;;;;5106071;28;20483;-74
2021/11/10 00:07:06;;;;;;;69.75;48.22;;;154.10;2252.80;;;;;;5107212;28;20105;-74
2021/11/10 00:09:32;;;;;;;78.55;48.13;;;154.20;2252.80;;;;;;5101795;28;20506;-73
2021/11/10 00:11:58;;;;;;;70.43;46.50;;;154.20;2252.80;;;;;;5108381;28;20051;-74
2021/11/10 00:14:24;;;;;;;74.35;49.13;;;154.20;2252.80;;;;;;5105433;28;20028;-74
2021/11/10 00:16:52;;;;;;;74.50;49.03;;;154.30;2252.80;;;;;;5103581;28;20028;-74
2021/11/10 00:19:18;;;;;;;77.93;48.92;;;154.20;2252.80;;;;;;5104374;28;20036;-74
2021/11/10 00:21:44;;;;;;;87.28;55.00;;;154.20;2252.80;;;;;;5110390;28;20024;-74
2021/11/10 00:24:10;;;;;;;119.03;72.95;;;154.30;2252.80;;;;;;5102683;28;20106;-74
2021/11/10 00:26:36;;;;;;;104.00;68.15;;;154.20;2252.80;;;;;;5102459;28;20069;-75
2021/11/10 00:29:02;;;;;;;92.05;60.25;;;154.20;2252.80;;;;;;5110102;28;20063;-74
2021/11/10 00:31:28;;;;;;;101.00;64.05;;;154.20;2252.80;;;;;;5104497;28;20032;-75
2021/11/10 00:33:54;;;;;;;111.75;66.35;;;154.20;2252.80;;;;;;5107723;28;20023;-74
2021/11/10 00:36:20;;;;;;;127.88;78.80;;;154.20;2252.80;;;;;;5109909;28;20453;-74
2021/11/10 00:38:46;;;;;;;143.93;88.28;;;154.20;2252.80;;;;;;5109364;28;20019;-75
2021/11/10 00:41:12;;;;;;;132.35;86.05;;;154.20;2252.80;;;;;;5106858;28;20077;-75
2021/11/10 00:43:38;;;;;;;141.80;91.18;;;154.20;2252.80;;;;;;5101639;28;20062;-74
2021/11/10 00:46:04;;;;;;;144.63;83.20;;;154.20;2252.80;;;;;;5098988;28;20504;-74
2021/11/10 00:48:30;;;;;;;137.07;77.43;;;154.10;2252.80;;;;;;5102250;28;20028;-75
2021/11/10 00:50:56;;;;;;;140.27;74.57;;;154.10;2252.80;;;;;;5103705;28;20024;-75
2021/11/10 00:53:22;;;;;;;131.70;66.15;;;154.00;2252.80;;;;;;5103720;28;20024;-75
2021/11/10 00:55:48;;;;;;;120.65;61.75;;;154.00;2252.80;;;;;;5105042;28;20028;-74
2021/11/10 00:58:13;;;;;;;102.13;62.72;;;153.90;2252.80;;;;;;5103954;28;20023;-74
2021/11/10 01:00:40;;;;;;;123.28;59.65;;;153.80;2252.80;;;;;;5107768;28;20040;-74
2021/11/10 01:03:08;;;;;;;106.82;60.47;;;153.80;2252.80;;;;;;5103316;28;20050;-74
2021/11/10 01:05:35;;;;;;;111.93;54.92;;;153.80;2252.80;;;;;;5101563;28;20077;-74
2021/11/10 01:08:02;;;;;;;94.95;53.25;;;153.60;2252.80;;;;;;5104041;28;20471;-74
2021/11/10 01:10:28;;;;;;;89.25;53.70;;;153.60;2252.80;;;;;;5102552;28;20073;-74
2021/11/10 01:12:54;;;;;;;97.13;51.47;;;153.60;2252.80;;;;;;5101912;28;20023;-74
2021/11/10 01:15:20;;;;;;;135.15;45.97;;;128.90;2252.80;;;;;;5100683;28;20043;-75
2021/11/10 01:17:46;;;;;;;102.93;37.53;;;128.90;2252.80;;;;;;5104601;28;20114;-74
2021/11/10 01:20:14;;;;;;;60.03;34.78;;;128.80;2252.80;;;;;;5102282;28;20032;-74
2021/11/10 01:22:40;;;;;;;68.20;34.58;;;128.60;2252.80;;;;;;5102505;28;20024;-74
2021/11/10 01:25:09;;;;;;;78.88;35.58;;;128.60;2252.80;;;;;;5105979;28;20165;-74
2021/11/10 01:27:34;;;;;;;82.55;37.08;;;128.50;2252.80;;;;;;5106219;28;20020;-74
2021/11/10 01:30:00;;;;;;;152.93;49.78;;;128.50;2252.80;;;;;;5103976;28;20487;-74
2021/11/10 01:32:27;;;;;;;97.97;37.03;;;128.40;2252.80;;;;;;5099186;28;20036;-75
2021/11/10 01:34:52;;;;;;;82.60;34.65;;;128.50;2252.80;;;;;;5103305;28;20433;-74
2021/11/10 01:37:18;;;;;;;89.03;37.20;;;128.40;2252.80;;;;;;5103716;28;20023;-74
2021/11/10 01:39:44;;;;;;;109.32;36.00;;;128.30;2252.80;;;;;;5103555;28;20020;-74
2021/11/10 01:42:10;;;;;;;133.18;38.45;;;128.20;2252.80;;;;;;5103193;28;20042;-74
2021/11/10 01:44:38;;;;;;;126.55;35.72;;;128.20;2252.80;;;;;;5101655;28;20020;-74
2021/11/10 01:47:10;;;;;;;109.65;36.67;;;128.10;2252.80;;;;;;5101411;28;20479;-74
2021/11/10 01:49:38;;;;;;;81.15;33.10;;;128.00;2252.80;;;;;;5103772;28;20020;-74
2021/11/10 01:52:05;;;;;;;130.40;35.10;;;128.00;2252.80;;;;;;5102915;28;20507;-74
2021/11/10 01:54:33;;;;;;;118.25;35.10;;;128.00;2252.80;;;;;;5103239;28;20085;-74
2021/11/10 01:57:01;;;;;;;104.78;33.17;;;103.30;2227.20;;;;;;5108159;28;20106;-74
2021/11/10 01:59:34;;;;;;;109.15;35.60;;;103.30;2227.20;;;;;;5113137;28;20391;-74
2021/11/10 02:02:02;;;;;;;108.13;34.15;;;103.30;2227.20;;;;;;5113286;28;20555;-74
2021/11/10 02:04:30;;;;;;;129.88;39.45;;;103.20;2227.20;;;;;;5111823;28;20016;-74
2021/11/10 02:06:58;;;;;;;84.63;34.17;;;103.10;2227.20;;;;;;5112686;28;20031;-74
2021/11/10 02:09:24;;;;;;;86.22;34.83;;;103.20;2227.20;;;;;;5113225;28;20065;-74
2021/11/10 02:11:55;;;;;;;73.13;35.75;;;103.30;2227.20;;;;;;5113075;28;20695;-74
2021/11/10 02:14:24;;;;;;;106.20;39.10;;;103.30;2227.20;;;;;;5113130;28;20427;-74
2021/11/10 02:16:51;;;;;;;144.35;47.75;;;103.30;2227.20;;;;;;5111023;28;20084;-74
2021/11/10 02:19:18;;;;;;;139.02;42.97;;;103.30;2227.20;;;;;;5094297;28;20464;-74
2021/11/10 02:21:47;;;;;;;91.20;39.25;;;103.30;2227.20;;;;;;5092481;28;20433;-74
2021/11/10 02:24:15;;;;;;;86.07;37.60;;;103.30;2227.20;;;;;;5091225;28;20451;-74
2021/11/10 02:26:42;;;;;;;78.85;36.70;;;103.30;2227.20;;;;;;5092763;28;20028;-75
2021/11/10 02:29:10;;;;;;;164.70;53.28;;;103.20;2227.20;;;;;;5092500;28;20097;-74
2021/11/10 02:31:35;;;;;;;107.32;41.42;;;103.20;2227.20;;;;;;5091234;28;20052;-74
2021/11/10 02:34:03;;;;;;;115.82;46.83;;;103.20;2227.20;;;;;;5091110;28;20052;-74
2021/11/10 02:36:31;;;;;;;62.90;37.03;;;103.20;2227.20;;;;;;5092436;28;20020;-74
2021/11/10 02:39:03;;;;;;;84.75;41.08;;;103.30;2227.20;;;;;;5094513;28;20111;-74
2021/11/10 02:41:30;;;;;;;85.50;39.55;;;128.00;2252.80;;;;;;5111740;28;20081;-74
2021/11/10 02:43:56;;;;;;;79.72;39.58;;;128.00;2252.80;;;;;;5112602;28;20018;-74
2021/11/10 02:46:23;;;;;;;72.28;40.42;;;128.00;2252.80;;;;;;5111011;28;20059;-74
2021/11/10 02:48:49;;;;;;;68.50;38.63;;;128.00;2252.80;;;;;;5111020;28;20031;-74
2021/11/10 02:51:15;;;;;;;77.80;39.05;;;128.10;2252.80;;;;;;5112592;28;20028;-75
2021/11/10 02:53:41;;;;;;;72.28;40.92;;;128.10;2252.80;;;;;;5112836;28;20436;-74
2021/11/10 02:56:08;;;;;;;66.53;37.75;;;128.20;2252.80;;;;;;5110728;28;20089;-74
2021/11/10 02:58:35;;;;;;;92.25;42.90;;;128.10;2252.80;;;;;;5112601;28;20016;-74
2021/11/10 03:01:03;;;;;;;82.75;41.47;;;128.20;2252.80;;;;;;5112406;28;20027;-74
2021/11/10 03:03:29;;;;;;;72.45;39.88;;;128.10;2252.80;;;;;;5112561;28;20495;-74
2021/11/10 03:05:56;;;;;;;73.45;41.40;;;128.00;2252.80;;;;;;5112306;28;20028;-74
2021/11/10 03:08:22;;;;;;;81.22;42.33;;;128.20;2252.80;;;;;;5111054;28;20104;-74
2021/11/10 03:10:49;;;;;;;72.10;39.78;;;128.20;2252.80;;;;;;5094908;28;20487;-74
2021/11/10 03:13:15;;;;;;;75.13;39.65;;;128.30;2252.80;;;;;;5091558;28;20034;-74
2021/11/10 03:15:42;;;;;;;68.60;35.97;;;128.30;2252.80;;;;;;5109694;28;20425;-74
2021/11/10 03:18:08;;;;;;;66.15;40.30;;;128.20;2252.80;;;;;;5106403;28;20028;-74
2021/11/10 03:20:34;;;;;;;70.03;38.25;;;128.30;2252.80;;;;;;5095185;28;20044;-74
2021/11/10 03:23:00;;;;;;;68.13;37.80;;;128.30;2252.80;;;;;;5100214;28;20051;-74
2021/11/10 03:25:26;;;;;;;60.88;37.33;;;128.20;2252.80;;;;;;5095171;28;20027;-75
2021/11/10 03:27:52;;;;;;;89.57;41.47;;;128.20;2252.80;;;;;;5094561;28;20036;-75
2021/11/10 03:30:19;;;;;;;187.32;64.10;;;128.00;2252.80;;;;;;5095007;28;20030;-75
2021/11/10 03:32:45;;;;;;;68.15;42.58;;;103.10;2227.20;;;;;;5094879;28;20464;-75
2021/11/10 03:35:12;;;;;;;68.80;39.92;;;103.20;2227.20;;;;;;5095703;28;20028;-75
2021/11/10 03:37:39;;;;;;;73.95;41.17;;;103.30;2227.20;;;;;;5095659;28;20028;-74
2021/11/10 03:40:06;;;;;;;66.72;41.22;;;103.30;2227.20;;;;;;5095522;28;20078;-75
2021/11/10 03:42:33;;;;;;;66.70;36.17;;;103.30;2227.20;;;;;;5095583;28;20395;-74
2021/11/10 03:44:59;;;;;;;63.22;38.35;;;103.30;2227.20;;;;;;5095339;28;20027;-74
2021/11/10 03:47:26;;;;;;;70.22;42.08;;;103.30;2227.20;;;;;;5093754;28;20105;-74
2021/11/10 03:49:51;;;;;;;68.85;41.83;;;103.30;2227.20;;;;;;5095292;28;20357;-74
2021/11/10 03:52:18;;;;;;;69.68;42.75;;;103.30;2227.20;;;;;;5095500;28;20035;-74
2021/11/10 03:54:44;;;;;;;77.22;46.70;;;128.00;2252.80;;;;;;5102780;28;20488;-74
2021/11/10 03:57:11;;;;;;;78.53;46.83;;;128.00;2252.80;;;;;;5115672;28;20059;-74
2021/11/10 03:59:38;;;;;;;76.75;45.80;;;128.00;2252.80;;;;;;5114408;28;20030;-74
2021/11/10 04:02:09;;;;;;;79.22;44.83;;;128.00;2252.80;;;;;;5115382;28;20076;-75
2021/11/10 04:04:35;;;;;;;69.13;43.20;;;103.30;2227.20;;;;;;5115539;28;20791;-74
2021/11/10 04:07:00;;;;;;;67.18;40.72;;;128.00;2252.80;;;;;;5114126;28;20034;-75
2021/11/10 04:09:27;;;;;;;64.50;44.25;;;103.30;2227.20;;;;;;5115613;28;20023;-75
2021/11/10 04:11:53;;;;;;;63.20;40.53;;;103.30;2227.20;;;;;;5110662;28;20126;-75
2021/11/10 04:14:19;;;;;;;65.95;39.63;;;128.00;2252.80;;;;;;5115410;28;20142;-75
2021/11/10 04:16:45;;;;;;;65.28;41.40;;;103.30;2227.20;;;;;;5115119;28;20088;-75
2021/11/10 04:19:11;;;;;;;61.83;41.00;;;103.30;2227.20;;;;;;5114061;28;20020;-75
2021/11/10 04:21:37;;;;;;;67.80;40.50;;;103.30;2227.20;;;;;;5098694;28;20052;-75
2021/11/10 04:24:03;;;;;;;69.85;44.05;;;103.30;2227.20;;;;;;5093411;28;20361;-75
2021/11/10 04:26:36;;;;;;;84.80;45.30;;;103.20;2227.20;;;;;;5093520;28;20024;-75
2021/11/10 04:29:04;;;;;;;68.28;42.72;;;103.10;2227.20;;;;;;5092554;28;20045;-78
2021/11/10 04:31:30;;;;;;;61.40;40.75;;;103.00;2227.20;;;;;;5101956;28;20059;-74
2021/11/10 04:33:56;;;;;;;55.10;34.90;;;103.10;2227.20;;;;;;5114805;28;20055;-74
2021/11/10 04:36:24;;;;;;;56.60;34.38;;;103.10;2227.20;;;;;;5114922;28;20038;-74
2021/11/10 04:38:50;;;;;;;49.72;31.98;;;103.10;2227.20;;;;;;5113511;28;20031;-74
2021/11/10 04:41:17;;;;;;;48.28;32.80;;;103.10;2227.20;;;;;;5113015;28;20027;-74
2021/11/10 04:43:43;;;;;;;54.88;33.28;;;103.30;2227.20;;;;;;5112522;28;20024;-79
2021/11/10 04:48:37;;;;;;;58.33;33.03;;;103.10;2227.20;;;;;;5114962;28;20646;-75
2021/11/10 04:51:04;;;;;;;54.67;32.75;;;103.10;2227.20;;;;;;5114594;28;20062;-75
2021/11/10 04:53:33;;;;;;;81.43;38.50;;;103.00;2227.20;;;;;;5114788;28;20068;-75
2021/11/10 04:55:59;;;;;;;97.82;40.45;;;103.00;2227.20;;;;;;5113075;28;20439;-74
2021/11/10 04:58:24;;;;;;;94.05;40.13;;;102.90;2227.20;;;;;;5113209;28;20051;-75
2021/11/10 05:00:50;;;;;;;97.80;38.13;;;102.90;2227.20;;;;;;5113076;28;20028;-75
2021/11/10 05:03:16;;;;;;;72.88;33.63;;;102.90;2227.20;;;;;;5114315;28;20373;-75
2021/11/10 05:05:43;;;;;;;58.83;33.85;;;102.90;2227.20;;;;;;5112688;28;20028;-75
2021/11/10 05:08:09;;;;;;;118.75;38.65;;;102.90;2227.20;;;;;;5114254;28;20046;-75
2021/11/10 05:10:34;;;;;;;81.25;35.72;;;102.90;2227.20;;;;;;5113080;28;20479;-74
2021/11/10 05:13:00;;;;;;;61.40;33.65;;;102.80;2227.20;;;;;;5114092;28;20036;-74
2021/11/10 05:15:26;;;;;;;53.03;31.23;;;102.90;2227.20;;;;;;5113928;28;20460;-75
2021/11/10 05:17:52;;;;;;;52.08;31.88;;;102.80;2227.20;;;;;;5096305;28;20078;-74
2021/11/10 05:20:18;;;;;;;48.88;28.13;;;102.80;2227.20;;;;;;5093570;28;20101;-76
2021/11/10 05:22:44;;;;;;;40.38;26.17;;;102.80;2227.20;;;;;;5109496;28;20043;-76
2021/11/10 05:25:10;;;;;;;41.10;28.10;;;102.80;2227.20;;;;;;5113257;28;20547;-76
2021/11/10 05:27:36;;;;;;;44.88;26.23;;;102.80;2227.20;;;;;;5113018;28;20027;-76
2021/11/10 05:30:05;;;;;;;41.22;27.67;;;102.80;2227.20;;;;;;5112967;28;20365;-76
2021/11/10 05:32:30;;;;;;;42.70;28.38;;;102.80;2227.20;;;;;;5112194;28;20032;-75
2021/11/10 05:34:59;;;;;;;43.38;29.13;;;102.90;2227.20;;;;;;5113780;28;20046;-76
2021/11/10 05:37:26;;;;;;;46.40;27.40;;;102.80;2227.20;;;;;;5110930;28;20031;-76
2021/11/10 05:39:52;;;;;;;42.97;27.52;;;102.80;2227.20;;;;;;5112535;28;20019;-75
2021/11/10 05:42:18;;;;;;;39.88;26.10;;;102.70;2227.20;;;;;;5112473;28;20020;-76
2021/11/10 05:44:44;;;;;;;36.70;25.75;;;102.80;2227.20;;;;;;5099469;28;20450;-76
2021/11/10 05:47:10;;;;;;;33.33;22.35;;;102.80;2227.20;;;;;;5102120;28;20044;-76
2021/11/10 05:49:36;;;;;;;36.58;23.30;;;102.70;2227.20;;;;;;5113546;28;20027;-76
2021/11/10 05:52:03;;;;;;;40.30;24.38;;;102.70;2227.20;;;;;;5112424;28;20023;-76
2021/11/10 05:54:28;;;;;;;39.80;26.02;;;102.70;2227.20;;;;;;5109073;28;20173;-75
2021/11/10 05:56:54;;;;;;;41.70;25.77;;;102.80;2227.20;;;;;;5112035;28;20118;-76
2021/11/10 05:59:20;;;;;;;42.60;27.02;;;102.80;2227.20;;;;;;5113448;28;20761;-75
2021/11/10 06:01:46;;;;;;;42.17;26.50;;;102.80;2227.20;;;;;;5109284;28;20024;-75
2021/11/10 06:04:12;;;;;;;45.30;26.27;;;102.90;2227.20;;;;;;5107830;28;20506;-75
2021/11/10 06:06:39;;;;;;;41.30;25.80;;;102.90;2227.20;;;;;;5112117;28;20035;-76
2021/11/10 06:09:05;;;;;;;41.45;26.52;;;102.90;2227.20;;;;;;5112573;28;20020;-77
2021/11/10 06:11:31;;;;;;;40.22;27.05;;;102.90;2227.20;;;;;;5111380;28;20055;-76
2021/11/10 06:13:57;;;;;;;43.22;27.52;;;103.00;2227.20;;;;;;5113185;28;20058;-76
2021/11/10 06:16:23;;;;;;;39.35;26.52;;;103.00;2227.20;;;;;;5111007;28;20039;-76
2021/11/10 06:18:49;;;;;;;43.80;28.13;;;103.10;2227.20;;;;;;5113184;28;20357;-75
2021/11/10 06:21:15;;;;;;;42.78;26.05;;;103.10;2227.20;;;;;;5111671;28;20074;-76
2021/11/10 06:23:41;;;;;;;43.35;29.15;;;103.20;2227.20;;;;;;5112930;28;20031;-76
2021/11/10 06:26:07;;;;;;;39.78;25.38;;;103.20;2227.20;;;;;;5111629;28;20030;-76
2021/11/10 06:28:33;;;;;;;35.92;22.67;;;103.30;2227.20;;;;;;5112800;28;20387;-76
2021/11/10 06:30:59;;;;;;;36.95;25.33;;;128.00;2252.80;;;;;;5112972;28;20027;-76
2021/11/10 06:33:25;;;;;;;37.25;24.60;;;128.10;2252.80;;;;;;5105550;28;20031;-76
2021/11/10 06:35:51;;;;;;;31.58;22.10;;;128.10;2252.80;;;;;;5104302;28;20032;-76
2021/11/10 06:38:17;;;;;;;35.35;22.73;;;128.20;2252.80;;;;;;5102677;28;20057;-75
2021/11/10 06:40:42;;;;;;;29.73;21.63;;;128.30;2252.80;;;;;;5108012;28;20388;-75
2021/11/10 06:43:09;;;;;;;33.00;21.63;;;128.40;2252.80;;;;;;5104069;28;20028;-75
2021/11/10 06:45:34;;;;;;;30.27;19.98;;;128.50;2252.80;;;;;;5104594;28;20616;-76
2021/11/10 06:48:00;;;;;;;35.72;21.38;;;128.70;2252.80;;;;;;5100393;28;20118;-76
2021/11/10 06:50:26;;;;;;;31.98;21.98;;;128.80;2252.80;;;;;;5103197;28;20090;-76
2021/11/10 06:52:52;;;;;;;32.15;21.92;;;128.90;2252.80;;;;;;5103232;28;20391;-76
2021/11/10 06:55:18;;;;;;;27.48;18.48;;;153.70;2252.80;;;;;;5101497;28;20024;-76
2021/11/10 06:57:43;;;;;;;27.05;18.67;;;153.90;2252.80;;;;;;5103490;28;20024;-77
2021/11/10 07:00:12;;;;;;;29.75;18.60;;;154.10;2252.80;;;;;;5100262;28;20162;-76
2021/11/10 07:02:38;;;;;;;37.15;18.20;;;154.30;2252.80;;;;;;5096049;28;20107;-77
2021/11/10 07:05:05;;;;;;;23.02;16.17;;;154.50;2252.80;;;;;;5096809;28;20026;-76
2021/11/10 07:07:30;;;;;;;21.75;16.02;;;179.30;2252.80;;;;;;5110517;28;20368;-77
2021/11/10 07:09:56;;;;;;;19.25;14.38;;;179.40;2252.80;;;;;;5107970;28;20089;-75
2021/11/10 07:12:22;;;;;;;22.80;13.82;;;179.60;2252.80;;;;;;5108059;27;20027;-75
2021/11/10 07:14:48;;;;;;;23.80;16.45;;;179.80;2252.80;;;;;;5104962;28;20115;-75
2021/11/10 07:17:14;;;;;;;29.50;20.98;;;179.90;2252.80;;;;;;5109826;28;20164;-76
2021/11/10 07:19:41;;;;;;;32.35;22.20;;;180.10;2252.80;;;;;;5101088;28;20032;-75
2021/11/10 07:22:06;;;;;;;41.53;28.52;;;204.90;2252.80;;;;;;5105969;28;20016;-75
2021/11/10 07:24:32;;;;;;;26.10;17.20;;;205.00;2252.80;;;;;;5114740;28;20030;-75
2021/11/10 07:26:58;;;;;;;40.95;24.90;;;205.20;2252.80;;;;;;5116328;28;20368;-75
2021/11/10 07:29:24;;;;;;;35.53;21.88;;;205.30;2252.80;;;;;;5115066;28;20059;-75
2021/11/10 07:31:50;;;;;;;22.77;15.95;;;205.50;2252.80;;;;;;5114720;28;20055;-75
2021/11/10 07:34:16;;;;;;;19.02;13.10;;;205.60;2252.80;;;;;;5116478;28;20024;-76
2021/11/10 07:36:42;;;;;;;16.98;13.95;;;205.70;2252.80;;;;;;5114687;28;20047;-76
2021/11/10 07:39:08;;;;;;;13.35;10.23;;;230.40;2252.80;;;;;;5116321;28;20020;-76
2021/11/10 07:41:35;;;;;;;12.43;9.35;;;230.50;2252.80;;;;;;5115884;28;20051;-75
2021/11/10 07:44:02;;;;;;;14.63;10.55;;;230.70;2252.80;;;;;;5114583;28;20027;-76
2021/11/10 07:46:32;;;;;;;22.17;13.15;;;230.80;2252.80;;;;;;5101204;28;20500;-76
2021/11/10 07:48:58;;;;;;;19.88;12.80;;;230.80;2252.80;;;;;;5098481;28;20395;-76
2021/11/10 07:51:24;;;;;;;30.10;14.82;;;230.90;2252.80;;;;;;5094130;28;20027;-75
2021/11/10 07:53:50;;;;;;;21.55;13.48;;;231.00;2252.80;;;;;;5094109;28;20030;-75
2021/11/10 07:56:16;;;;;;;27.73;13.27;;;231.10;2252.80;;;;;;5095426;28;20055;-75
2021/11/10 07:58:42;;;;;;;28.70;15.80;;;231.20;2252.80;;;;;;5093965;28;20016;-75
2021/11/10 08:01:10;;;;;;;19.55;11.93;;;231.30;2252.80;;;;;;5095559;28;20027;-75
2021/11/10 08:03:36;;;;;;;23.55;13.48;;;231.30;2252.80;;;;;;5106959;28;20023;-75
2021/11/10 08:06:03;;;;;;;17.88;11.93;;;256.10;2252.80;;;;;;5108871;28;20024;-76
2021/11/10 08:08:29;;;;;;;17.88;12.35;;;256.10;2252.80;;;;;;5106170;28;20031;-75
2021/11/10 08:10:58;;;;;;;14.93;11.88;;;256.30;2252.80;;;;;;5103085;28;20042;-76
2021/11/10 08:13:25;;;;;;;16.05;11.57;;;256.40;2252.80;;;;;;5099831;28;20023;-76
2021/11/10 08:15:52;;;;;;;12.80;9.75;;;256.60;2252.80;;;;;;5111259;28;20069;-75
2021/11/10 08:18:18;;;;;;;10.48;8.02;;;281.60;2278.40;;;;;;5102900;28;20028;-76
2021/11/10 08:20:44;;;;;;;13.50;9.75;;;281.90;2278.40;;;;;;5093678;28;20027;-76
2021/11/10 08:23:12;;;;;;;14.57;10.68;;;282.10;2278.40;;;;;;5098917;28;20422;-76
2021/11/10 08:25:39;;;;;;;12.75;9.80;;;282.30;2278.40;;;;;;5110333;28;20022;-76
2021/11/10 08:28:04;;;;;;;18.17;12.88;;;282.50;2278.40;;;;;;5114975;28;20094;-75
2021/11/10 08:30:31;;;;;;;13.15;10.27;;;307.30;2304.00;;;;;;5115137;28;20498;-75
2021/11/10 08:32:57;;;;;;;8.77;6.88;;;307.50;2304.00;;;;;;5114815;28;20024;-76
2021/11/10 08:35:22;;;;;;;14.00;9.35;;;307.60;2304.00;;;;;;5113874;28;20376;-76
2021/11/10 08:37:51;;;;;;;10.70;8.38;;;307.80;2304.00;;;;;;5114790;28;20031;-75
2021/11/10 08:40:17;;;;;;;9.25;6.72;;;308.00;2304.00;;;;;;5113300;28;20095;-75
2021/11/10 08:42:43;;;;;;;12.95;9.10;;;332.80;2329.60;;;;;;5092193;28;20028;-76
2021/11/10 08:45:13;;;;;;;14.90;10.98;;;333.00;2329.60;;;;;;5094335;28;20028;-76
2021/11/10 08:47:43;;;;;;;11.50;8.43;;;333.20;2329.60;;;;;;5101447;28;20043;-76
2021/11/10 08:50:10;;;;;;;9.13;6.53;;;333.30;2329.60;;;;;;5114639;28;20075;-76
2021/11/10 08:52:37;;;;;;;10.32;7.85;;;333.60;2329.60;;;;;;5113573;28;20023;-76
2021/11/10 08:55:08;;;;;;;11.45;7.72;;;358.40;2329.60;;;;;;5105076;28;20023;-76
2021/11/10 08:57:35;;;;;;;6.75;5.38;;;333.70;2329.60;;;;;;5092897;28;20020;-76
2021/11/10 09:00:02;;;;;;;5.38;3.88;;;358.60;2329.60;;;;;;5100052;28;20036;-76
2021/11/10 09:02:28;;;;;;;9.60;7.57;;;358.50;2329.60;;;;;;5114555;28;20020;-76
2021/11/10 09:04:53;;;;;;;10.00;5.88;;;358.70;2329.60;;;;;;5114215;28;20020;-76
2021/11/10 09:07:19;;;;;;;7.22;5.28;;;358.70;2329.60;;;;;;5113149;28;20028;-75
2021/11/10 09:09:45;;;;;;;7.07;5.03;;;359.00;2329.60;;;;;;5113809;28;20027;-76
2021/11/10 09:12:11;;;;;;;8.93;5.55;;;358.90;2329.60;;;;;;5114252;28;20795;-76
2021/11/10 09:14:37;;;;;;;5.72;4.05;;;359.00;2329.60;;;;;;5111215;28;20395;-76
2021/11/10 09:17:02;;;;;;;4.80;3.70;;;359.00;2329.60;;;;;;5111057;28;20063;-76
2021/11/10 09:19:28;;;;;;;6.93;4.47;;;359.00;2329.60;;;;;;5111886;28;20020;-76
2021/11/10 09:21:54;;;;;;;5.85;3.90;;;359.10;2329.60;;;;;;5093486;28;20484;-76
2021/11/10 09:24:20;;;;;;;7.60;5.28;;;359.10;2329.60;;;;;;5094770;28;20024;-76
2021/11/10 09:26:48;;;;;;;5.90;3.95;;;384.00;2329.60;;;;;;5104313;28;20119;-76
2021/11/10 09:29:16;;;;;;;8.57;5.07;;;384.20;2329.60;;;;;;5103378;28;20028;-76
2021/11/10 09:31:42;;;;;;;6.80;4.78;;;384.20;2329.60;;;;;;5104295;28;20499;-76
2021/11/10 09:34:11;;;;;;;7.82;5.70;;;384.40;2329.60;;;;;;5103151;28;20381;-76
2021/11/10 09:36:39;;;;;;;6.63;5.07;;;384.90;2329.60;;;;;;5100889;28;20107;-76
2021/11/10 09:39:06;;;;;;;6.95;4.68;;;409.60;2355.20;;;;;;5100764;28;20024;-76
2021/11/10 09:41:34;;;;;;;8.75;4.35;;;384.90;2329.60;;;;;;5097731;28;20482;-76
2021/11/10 09:44:01;;;;;;;5.47;4.18;;;384.70;2329.60;;;;;;5098205;28;20020;-77
2021/11/10 09:46:28;;;;;;;6.28;4.25;;;384.90;2329.60;;;;;;5102045;28;20047;-77
2021/11/10 09:48:54;;;;;;;7.43;4.70;;;409.70;2355.20;;;;;;5096689;28;20077;-76
2021/11/10 09:51:20;;;;;;;7.47;5.45;;;409.80;2355.20;;;;;;5102637;28;20099;-76
2021/11/10 09:53:46;;;;;;;11.30;5.18;;;410.10;2355.20;;;;;;5106594;28;20055;-76
2021/11/10 09:56:12;;;;;;;7.90;5.57;;;435.20;2355.20;;;;;;5104852;28;20032;-76
2021/11/10 09:58:38;;;;;;;10.02;5.97;;;435.30;2355.20;;;;;;5099721;28;20024;-76
2021/11/10 10:01:08;;;;;;;7.40;5.40;;;435.40;2355.20;;;;;;5100740;28;20388;-75
2021/11/10 10:03:35;;;;;;;6.25;5.15;;;435.30;2355.20;;;;;;5103053;28;20016;-75
2021/11/10 10:06:02;;;;;;;7.28;5.60;;;435.40;2355.20;;;;;;5100841;28;20423;-75
2021/11/10 10:08:28;;;;;;;7.40;5.35;;;410.40;2355.20;;;;;;5102478;28;20024;-75
2021/11/10 10:10:54;;;;;;;11.40;6.70;;;435.40;2355.20;;;;;;5106703;28;20024;-75
2021/11/10 10:13:21;;;;;;;10.77;7.18;;;435.30;2355.20;;;;;;5101280;28;20035;-75
2021/11/10 10:15:48;;;;;;;11.90;7.40;;;435.50;2355.20;;;;;;5102997;28;20519;-76
2021/11/10 10:18:21;;;;;;;11.85;8.13;;;435.20;2355.20;;;;;;5101123;28;20542;-75
2021/11/10 10:21:01;;;;;;;11.63;7.85;;;435.20;2355.20;;;;;;5098423;28;20047;-76
2021/11/10 10:23:31;;;;;;;8.60;6.53;;;410.50;2355.20;;;;;;5099416;28;20099;-76
2021/11/10 10:26:18;;;;;;;9.20;7.35;;;410.30;2355.20;;;;;;5104921;28;20070;-76
2021/11/10 10:28:48;;;;;;;10.57;7.60;;;435.60;2355.20;;;;;;5104238;28;20059;-75
2021/11/10 10:31:17;;;;;;;8.38;6.20;;;435.60;2355.20;;;;;;5115309;27;20503;-75
2021/11/10 10:33:46;;;;;;;13.57;11.65;;;435.70;2355.20;;;;;;5102923;28;20054;-75
2021/11/10 10:36:19;;;;;;;11.35;7.63;;;435.70;2355.20;;;;;;5100403;28;20383;-75
2021/11/10 10:38:51;;;;;;;13.52;10.32;;;435.50;2355.20;;;;;;5099975;28;20024;-75
2021/11/10 10:41:20;;;;;;;10.00;7.53;;;435.70;2355.20;;;;;;5100849;28;20030;-75
2021/11/10 10:43:49;;;;;;;10.15;7.38;;;435.90;2355.20;;;;;;5098410;28;20085;-75
2021/11/10 10:46:16;;;;;;;7.35;5.90;;;435.70;2355.20;;;;;;5096447;28;20089;-75
2021/11/10 10:48:44;;;;;;;12.80;8.80;;;435.70;2355.20;;;;;;5100678;28;20054;-75
2021/11/10 10:51:16;;;;;;;6.32;4.95;;;436.10;2355.20;;;;;;5101052;28;20028;-74
2021/11/10 10:53:52;;;;;;;10.18;7.13;;;436.00;2355.20;;;;;;5100320;28;20102;-75
2021/11/10 10:56:26;;;;;;;7.95;6.45;;;460.90;2380.80;;;;;;5098816;28;20484;-75
2021/11/10 10:58:58;;;;;;;7.80;5.70;;;460.80;2380.80;;;;;;5101166;28;20040;-74
2021/11/10 11:01:33;;;;;;;9.57;6.63;;;436.10;2355.20;;;;;;5103372;28;20028;-75
2021/11/10 11:04:12;;;;;;;10.73;7.28;;;461.50;2380.80;;;;;;5102749;28;20102;-75
2021/11/10 11:06:50;;;;;;;7.65;5.85;;;461.40;2380.80;;;;;;5098088;28;20042;-75
2021/11/10 11:09:28;;;;;;;9.18;6.78;;;461.50;2380.80;;;;;;5098902;28;20035;-74
2021/11/10 11:12:05;;;;;;;10.25;5.32;;;461.60;2380.80;;;;;;5096783;28;20024;-75
2021/11/10 11:14:48;;;;;;;6.63;5.30;;;461.40;2380.80;;;;;;5098535;28;20039;-75
2021/11/10 11:17:35;;;;;;;11.15;6.80;;;461.00;2380.80;;;;;;5098621;28;20027;-75
2021/11/10 11:20:18;;;;;;;7.63;5.82;;;461.50;2380.80;;;;;;5099811;28;20036;-74
2021/11/10 11:22:52;;;;;;;11.27;6.75;;;461.70;2380.80;;;;;;5097455;28;20020;-74
2021/11/10 11:25:19;;;;;;;8.25;7.05;;;486.60;2380.80;;;;;;5103430;28;20165;-75
2021/11/10 11:27:52;;;;;;;8.50;6.60;;;461.60;2380.80;;;;;;5098534;28;20035;-75
2021/11/10 11:30:18;;;;;;;7.47;6.43;;;486.40;2380.80;;;;;;5098820;28;20114;-75
2021/11/10 11:32:55;;;;;;;9.00;7.00;;;486.60;2380.80;;;;;;5099267;28;20024;-75
2021/11/10 11:35:31;;;;;;;;;;;486.40;2380.80;;;;;;5109563;28;20028;-75
2021/11/10 11:37:59;;;;;;;8.30;6.20;;;461.50;2380.80;;;;;;5096788;28;19911;-75
2021/11/10 11:40:27;;;;;;;7.10;6.07;;;461.50;2380.80;;;;;;5104969;28;20085;-75
2021/11/10 11:42:55;;;;;;;8.30;5.53;;;461.00;2380.80;;;;;;5103712;28;20042;-75
2021/11/10 11:45:26;;;;;;;7.20;4.88;;;461.50;2380.80;;;;;;5107268;28;20016;-75
2021/11/10 11:47:54;;;;;;;7.50;5.85;;;460.80;2380.80;;;;;;5105861;28;20075;-75
2021/11/10 11:50:21;;;;;;;8.23;6.40;;;461.00;2380.80;;;;;;5104491;28;20093;-75
2021/11/10 11:52:50;;;;;;;12.55;7.90;;;461.10;2380.80;;;;;;5104033;28;20461;-74
2021/11/10 11:55:24;;;;;;;8.68;6.03;;;461.30;2380.80;;;;;;5103545;28;20081;-75
2021/11/10 11:58:04;;;;;;;8.65;7.05;;;461.00;2380.80;;;;;;5103001;28;20094;-75
2021/11/10 12:00:39;;;;;;;8.13;6.90;;;461.20;2380.80;;;;;;5112262;28;20050;-74
2021/11/10 12:03:23;;;;;;;8.35;6.13;;;461.20;2380.80;;;;;;5109134;28;20130;-75
2021/11/10 12:06:13;;;;;;;11.63;8.65;;;461.30;2380.80;;;;;;5100942;28;20024;-75
2021/11/10 12:08:48;;;;;;;9.27;7.03;;;461.30;2380.80;;;;;;5111960;28;20032;-75